Time,TemperatureF,DewpointF,PressureIn,WindDirection,WindDirectionDegrees,WindSpeedMPH,WindSpeedGustMPH,Humidity,HourlyPrecipIn,Conditions,Clouds,dailyrainin,SolarRadiationWatts/m^2,SoftwareType,DateUTC
2013-08-22 00:22:00,64.0,54.0,-100.00,NNE,13,3.0,5.0,69,0.00,,,0.03,0.000000,,2013-08-22 06:22:00,
2013-08-22 00:32:00,64.0,54.0,-100.00,NNE,13,3.0,5.0,69,0.00,,,0.03,0.000000,,2013-08-22 06:32:00,
2013-08-22 00:42:00,64.0,54.0,-100.00,NNE,13,3.0,5.0,69,0.00,,,0.03,0.000000,,2013-08-22 06:42:00,
2013-08-22 00:52:00,64.0,54.0,-100.00,NNE,13,3.0,5.0,69,0.00,,,0.03,0.000000,,2013-08-22 06:52:00,
2013-08-22 01:22:00,65.0,53.0,-100.00,NE,48,4.0,13.0,66,0.00,,,0.03,0.000000,,2013-08-22 07:22:00,
2013-08-22 01:32:00,65.0,53.0,-100.00,NE,48,4.0,13.0,66,0.00,,,0.03,0.000000,,2013-08-22 07:32:00,
2013-08-22 02:22:00,64.0,54.0,-100.00,NW,323,2.0,11.0,70,0.00,,,0.03,0.000000,,2013-08-22 08:22:00,
2013-08-22 02:33:00,64.0,54.0,-100.00,NW,323,2.0,11.0,70,0.00,,,0.03,0.000000,,2013-08-22 08:33:00,
2013-08-22 02:43:00,64.0,54.0,-100.00,NW,323,2.0,11.0,70,0.00,,,0.03,0.000000,,2013-08-22 08:43:00,
2013-08-22 02:53:00,64.0,54.0,-100.00,NW,323,2.0,11.0,70,0.00,,,0.03,0.000000,,2013-08-22 08:53:00,
2013-08-22 03:22:00,64.0,54.0,-100.00,North,359,3.0,6.0,71,0.00,,,0.03,0.000000,,2013-08-22 09:22:00,
2013-08-22 03:33:00,64.0,54.0,-100.00,North,359,3.0,6.0,71,0.00,,,0.03,0.000000,,2013-08-22 09:33:00,
2013-08-22 03:43:00,64.0,54.0,-100.00,North,359,3.0,6.0,71,0.00,,,0.03,0.000000,,2013-08-22 09:43:00,
2013-08-22 03:53:00,64.0,54.0,-100.00,North,359,3.0,6.0,71,0.00,,,0.03,0.000000,,2013-08-22 09:53:00,
2013-08-22 04:23:00,62.0,53.0,-100.00,North,9,3.0,7.0,72,0.00,,,0.03,0.000000,,2013-08-22 10:23:00,
2013-08-22 04:32:00,62.0,53.0,-100.00,North,9,3.0,7.0,72,0.00,,,0.03,0.000000,,2013-08-22 10:32:00,
2013-08-22 06:32:00,62.0,51.0,-100.00,West,281,5.0,10.0,68,-99.99,,,0.03,0.000000,,2013-08-22 12:32:00,
2013-08-22 06:42:00,62.0,51.0,-100.00,West,281,5.0,10.0,68,-99.99,,,0.03,0.000000,,2013-08-22 12:42:00,
2013-08-22 06:52:00,62.0,51.0,-100.00,West,281,5.0,10.0,68,-99.99,,,0.03,0.000000,,2013-08-22 12:52:00,
2013-08-22 07:22:00,62.0,53.0,-100.00,NW,305,3.0,8.0,72,0.00,,,0.03,16.000000,,2013-08-22 13:22:00,
2013-08-22 07:32:00,62.0,53.0,-100.00,NW,305,3.0,8.0,72,0.00,,,0.03,16.000000,,2013-08-22 13:32:00,
2013-08-22 07:42:00,62.0,53.0,-100.00,NW,305,3.0,8.0,72,0.00,,,0.03,16.000000,,2013-08-22 13:42:00,
2013-08-22 07:52:00,62.0,53.0,-100.00,NW,305,3.0,8.0,72,0.00,,,0.03,16.000000,,2013-08-22 13:52:00,
2013-08-22 08:42:00,66.0,58.0,-100.00,NE,41,2.0,8.0,75,0.00,,,0.03,144.000000,,2013-08-22 14:42:00,
2013-08-22 08:52:00,66.0,58.0,-100.00,NE,41,2.0,8.0,75,0.00,,,0.03,144.000000,,2013-08-22 14:52:00,
2013-08-22 09:43:00,69.0,57.0,-100.00,South,176,4.0,9.0,66,0.00,,,0.02,334.000000,,2013-08-22 15:43:00,
2013-08-22 09:54:00,69.0,57.0,-100.00,South,176,4.0,9.0,66,0.00,,,0.02,334.000000,,2013-08-22 15:54:00,
2013-08-22 10:43:00,74.0,58.0,-100.00,SE,143,5.0,10.0,57,0.00,,,0.01,507.000000,,2013-08-22 16:43:00,
2013-08-22 10:53:00,74.0,58.0,-100.00,SE,143,5.0,10.0,57,0.00,,,0.01,507.000000,,2013-08-22 16:53:00,
2013-08-22 11:24:00,76.0,55.0,-100.00,South,178,6.0,12.0,49,0.00,,,0.01,658.000000,,2013-08-22 17:24:00,
2013-08-22 11:33:00,76.0,55.0,-100.00,South,178,6.0,12.0,49,0.00,,,0.01,658.000000,,2013-08-22 17:33:00,
2013-08-22 11:43:00,76.0,55.0,-100.00,South,178,6.0,12.0,49,0.00,,,0.01,658.000000,,2013-08-22 17:43:00,
2013-08-22 11:53:00,76.0,55.0,-100.00,South,178,6.0,12.0,49,0.00,,,0.01,658.000000,,2013-08-22 17:53:00,
2013-08-22 12:22:00,79.0,54.0,-100.00,SE,137,5.0,13.0,42,0.00,,,0.00,721.000000,,2013-08-22 18:22:00,
2013-08-22 12:32:00,79.0,54.0,-100.00,SE,137,5.0,13.0,42,0.00,,,0.00,721.000000,,2013-08-22 18:32:00,
2013-08-22 12:43:00,79.0,54.0,-100.00,SE,137,5.0,13.0,42,0.00,,,0.00,721.000000,,2013-08-22 18:43:00,
2013-08-22 12:52:00,79.0,54.0,-100.00,SE,137,5.0,13.0,42,0.00,,,0.00,721.000000,,2013-08-22 18:52:00,
2013-08-22 13:42:00,82.0,54.0,-100.00,ESE,122,6.0,14.0,38,0.00,,,0.00,827.000000,,2013-08-22 19:42:00,
2013-08-22 13:53:00,82.0,54.0,-100.00,ESE,122,6.0,14.0,38,0.00,,,0.00,827.000000,,2013-08-22 19:53:00,
2013-08-22 14:23:00,82.0,55.0,-100.00,SSE,148,7.0,14.0,39,0.00,,,0.00,820.000000,,2013-08-22 20:23:00,
2013-08-22 14:32:00,82.0,55.0,-100.00,SSE,148,7.0,14.0,39,0.00,,,0.00,820.000000,,2013-08-22 20:32:00,
2013-08-22 14:42:00,82.0,55.0,-100.00,SSE,148,7.0,14.0,39,0.00,,,0.00,820.000000,,2013-08-22 20:42:00,
2013-08-22 14:52:00,82.0,55.0,-100.00,SSE,148,7.0,14.0,39,0.00,,,0.00,820.000000,,2013-08-22 20:52:00,
2013-08-22 15:22:00,82.0,56.0,-100.00,SE,137,6.0,16.0,41,0.00,,,0.00,655.000000,,2013-08-22 21:22:00,
2013-08-22 15:34:00,82.0,56.0,-100.00,SE,137,6.0,16.0,41,0.00,,,0.00,655.000000,,2013-08-22 21:34:00,
2013-08-22 15:44:00,82.0,56.0,-100.00,SE,137,6.0,16.0,41,0.00,,,0.00,655.000000,,2013-08-22 21:44:00,
2013-08-22 15:54:00,82.0,56.0,-100.00,SE,137,6.0,16.0,41,0.00,,,0.00,655.000000,,2013-08-22 21:54:00,
2013-08-22 16:25:00,79.0,56.0,-100.00,ENE,63,6.0,15.0,46,0.00,,,0.00,404.000000,,2013-08-22 22:25:00,
2013-08-22 16:34:00,79.0,56.0,-100.00,ENE,63,6.0,15.0,46,0.00,,,0.00,404.000000,,2013-08-22 22:34:00,
2013-08-22 16:42:00,79.0,56.0,-100.00,ENE,63,6.0,15.0,46,0.00,,,0.00,404.000000,,2013-08-22 22:42:00,
2013-08-22 16:53:00,79.0,56.0,-100.00,ENE,63,6.0,15.0,46,0.00,,,0.00,404.000000,,2013-08-22 22:53:00,
2013-08-22 17:23:00,80.0,57.0,-100.00,NW,317,7.0,17.0,46,0.00,,,0.00,468.000000,,2013-08-22 23:23:00,
2013-08-22 17:33:00,80.0,57.0,-100.00,NW,317,7.0,17.0,46,0.00,,,0.00,468.000000,,2013-08-22 23:33:00,
2013-08-22 17:42:00,80.0,57.0,-100.00,NW,317,7.0,17.0,46,0.00,,,0.00,468.000000,,2013-08-22 23:42:00,
2013-08-22 17:52:00,80.0,57.0,-100.00,NW,317,7.0,17.0,46,0.00,,,0.00,468.000000,,2013-08-22 23:52:00,
2013-08-22 18:23:00,79.0,59.0,-100.00,East,94,8.0,18.0,51,0.00,,,0.00,369.000000,,2013-08-23 00:23:00,
2013-08-22 18:33:00,79.0,59.0,-100.00,East,94,8.0,18.0,51,0.00,,,0.00,369.000000,,2013-08-23 00:33:00,
2013-08-22 18:42:00,79.0,59.0,-100.00,East,94,8.0,18.0,51,0.00,,,0.00,369.000000,,2013-08-23 00:42:00,
2013-08-22 18:52:00,79.0,59.0,-100.00,East,94,8.0,18.0,51,0.00,,,0.00,369.000000,,2013-08-23 00:52:00,
2013-08-22 19:21:00,74.0,59.0,-100.00,SSE,152,9.0,24.0,60,0.00,,,0.00,133.000000,,2013-08-23 01:21:00,
2013-08-22 19:33:00,74.0,59.0,-100.00,SSE,152,9.0,24.0,60,0.00,,,0.00,133.000000,,2013-08-23 01:33:00,
2013-08-22 19:42:00,74.0,59.0,-100.00,SSE,152,9.0,24.0,60,0.00,,,0.00,133.000000,,2013-08-23 01:42:00,
2013-08-22 19:52:00,74.0,59.0,-100.00,SSE,152,9.0,24.0,60,0.00,,,0.00,133.000000,,2013-08-23 01:52:00,
2013-08-22 20:23:00,72.0,58.0,-100.00,ESE,103,7.0,19.0,61,0.00,,,0.00,18.000000,,2013-08-23 02:23:00,
2013-08-22 20:33:00,72.0,58.0,-100.00,ESE,103,7.0,19.0,61,0.00,,,0.00,18.000000,,2013-08-23 02:33:00,
2013-08-22 20:43:00,72.0,58.0,-100.00,ESE,103,7.0,19.0,61,0.00,,,0.00,18.000000,,2013-08-23 02:43:00,
2013-08-22 20:52:00,72.0,58.0,-100.00,ESE,103,7.0,19.0,61,0.00,,,0.00,18.000000,,2013-08-23 02:52:00,
2013-08-22 21:23:00,69.0,59.0,-100.00,SE,135,9.0,22.0,71,0.00,,,0.00,0.000000,,2013-08-23 03:23:00,
2013-08-22 21:34:00,69.0,59.0,-100.00,SE,135,9.0,22.0,71,0.00,,,0.00,0.000000,,2013-08-23 03:34:00,
2013-08-22 21:44:00,69.0,59.0,-100.00,SE,135,9.0,22.0,71,0.00,,,0.00,0.000000,,2013-08-23 03:44:00,
2013-08-22 21:55:00,69.0,59.0,-100.00,SE,135,9.0,22.0,71,0.00,,,0.00,0.000000,,2013-08-23 03:55:00,
2013-08-22 22:24:00,68.0,61.0,-100.00,ESE,113,5.0,20.0,77,0.00,,,0.00,0.000000,,2013-08-23 04:24:00,
2013-08-22 22:34:00,68.0,61.0,-100.00,ESE,113,5.0,20.0,77,0.00,,,0.00,0.000000,,2013-08-23 04:34:00,
2013-08-22 22:43:00,68.0,61.0,-100.00,ESE,113,5.0,20.0,77,0.00,,,0.00,0.000000,,2013-08-23 04:43:00,
2013-08-22 22:54:00,68.0,61.0,-100.00,ESE,113,5.0,20.0,77,0.00,,,0.00,0.000000,,2013-08-23 04:54:00,
2013-08-22 23:22:00,66.0,59.0,-100.00,SSE,157,4.0,12.0,79,0.00,,,0.00,0.000000,,2013-08-23 05:22:00,
2013-08-22 23:34:00,66.0,59.0,-100.00,SSE,157,4.0,12.0,79,0.00,,,0.00,0.000000,,2013-08-23 05:34:00,
2013-08-22 23:42:00,66.0,59.0,-100.00,SSE,157,4.0,12.0,79,0.00,,,0.00,0.000000,,2013-08-23 05:42:00,
2013-08-22 23:52:00,66.0,59.0,-100.00,SSE,157,4.0,12.0,79,0.00,,,0.00,0.000000,,2013-08-23 05:52:00,